This is the latest recevied weather packets stored in our database for station/object N0QWM. If no packets are shown the sender has not sent any weather packets the latest 10 day(s).
| Time | Temp. | Humidity | Pressure | Rain* | Wind** | Luminosity | Snow |
|---|---|---|---|---|---|---|---|
| 1778284659 | 16.67° C | 86% | 1018.5 hPa | 0 mm | - | 30 W/m² | - |
| 1778284357 | 16.67° C | 88% | 1018.2 hPa | 0 mm | - | 18 W/m² | - |
| 1778284054 | 16.67° C | 87% | 1018.7 hPa | 0 mm | - | 12 W/m² | - |
| 1778283750 | 16.67° C | 88% | 1018.4 hPa | 0 mm | - | 10 W/m² | - |
| 1778283450 | 16.67° C | 88% | 1019.1 hPa | 0 mm | - | 13 W/m² | - |
| 1778283147 | 16.67° C | 87% | 1019.1 hPa | 0 mm | - | 15 W/m² | - |
| 1778282844 | 16.67° C | 87% | 1018.9 hPa | 0 mm | - | 16 W/m² | - |
| 1778282541 | 16.67° C | 86% | 1018.8 hPa | 0 mm | - | 21 W/m² | - |
| 1778282239 | 16.67° C | 86% | 1019.3 hPa | 0 mm | - | 22 W/m² | - |
| 1778281935 | 17.22° C | 84% | 1019.3 hPa | 0 mm | - | 27 W/m² | - |
| 1778281632 | 17.22° C | 84% | 1019.3 hPa | 0 mm | - | 31 W/m² | - |
| 1778281328 | 17.22° C | 83% | 1019.2 hPa | 0 mm | - | 34 W/m² | - |
| 1778281027 | 17.22° C | 82% | 1019.2 hPa | 0 mm | - | 34 W/m² | - |
| 1778280722 | 17.22° C | 81% | 1018.9 hPa | 0 mm | - | 33 W/m² | - |
| 1778280420 | 17.78° C | 80% | 1019.2 hPa | 0 mm | - | 39 W/m² | - |
| 1778280117 | 17.78° C | 80% | 1019.4 hPa | 0 mm | - | 44 W/m² | - |
| 1778279815 | 17.78° C | 81% | 1019.3 hPa | 0 mm | - | 50 W/m² | - |
| 1778279512 | 17.78° C | 80% | 1019.2 hPa | 0 mm | - | 57 W/m² | - |
| 1778279210 | 17.78° C | 77% | 1019.3 hPa | 0 mm | - | 61 W/m² | - |
| 1778278907 | 17.78° C | 79% | 1019.3 hPa | 0 mm | - | 62 W/m² | - |
| 1778278603 | 17.78° C | 79% | 1019.2 hPa | 0 mm | - | 64 W/m² | - |
| 1778278298 | 17.78° C | 78% | 1019.3 hPa | 0 mm | - | 67 W/m² | - |
| 1778277996 | 17.78° C | 80% | 1019.5 hPa | 0 mm | - | 60 W/m² | - |
| 1778277692 | 17.78° C | 80% | 1019.3 hPa | 0 mm | - | 56 W/m² | - |
| 1778277388 | 17.78° C | 80% | 1019.3 hPa | 0 mm | - | 49 W/m² | - |
* Rain latest hour (hover to see other rain measurements)
** Current wind speed in m/s (hover to see current wind gust speed)